createdAt,value
2018-11-14T00:00:56.875Z,1020.68
2018-11-14T00:01:56.857Z,1020.65
2018-11-14T00:02:56.843Z,1020.65
2018-11-14T00:03:56.844Z,1020.64
2018-11-14T00:04:56.822Z,1020.67
2018-11-14T00:05:56.823Z,1020.65
2018-11-14T00:06:56.803Z,1020.69
2018-11-14T00:07:56.790Z,1020.72
2018-11-14T00:08:56.778Z,1020.73
2018-11-14T00:09:56.772Z,1020.72
2018-11-14T00:10:56.768Z,1020.68
2018-11-14T00:11:56.747Z,1020.72
2018-11-14T00:12:56.735Z,1020.70
2018-11-14T00:13:56.752Z,1020.74
2018-11-14T00:14:56.714Z,1020.72
2018-11-14T00:15:56.713Z,1020.72
2018-11-14T00:16:56.691Z,1020.73
2018-11-14T00:17:56.679Z,1020.71
2018-11-14T00:18:56.694Z,1020.73
2018-11-14T00:19:56.658Z,1020.72
2018-11-14T00:20:56.659Z,1020.74
2018-11-14T00:21:56.636Z,1020.72
2018-11-14T00:22:56.627Z,1020.70
2018-11-14T00:23:56.615Z,1020.72
2018-11-14T00:24:56.606Z,1020.71
2018-11-14T00:25:56.609Z,1020.74
2018-11-14T00:26:56.591Z,1020.73
2018-11-14T00:27:56.591Z,1020.74
2018-11-14T00:28:56.721Z,1020.70
2018-11-14T00:29:56.551Z,1020.71
2018-11-14T00:30:56.550Z,1020.66
2018-11-14T00:31:56.529Z,1020.66
2018-11-14T00:32:56.524Z,1020.62
2018-11-14T00:33:56.509Z,1020.62
2018-11-14T00:34:57.036Z,1020.57
2018-11-14T00:35:56.513Z,1020.59
2018-11-14T00:36:56.604Z,1020.57
2018-11-14T00:37:56.462Z,1020.52
2018-11-14T00:38:56.452Z,1020.51
2018-11-14T00:39:56.440Z,1020.49
2018-11-14T00:40:56.432Z,1020.51
2018-11-14T00:41:56.431Z,1020.56
2018-11-14T00:42:56.411Z,1020.58
2018-11-14T00:43:56.397Z,1020.58
2018-11-14T00:44:56.388Z,1020.55
2018-11-14T00:45:56.375Z,1020.58
2018-11-14T00:46:56.398Z,1020.54
2018-11-14T00:47:56.356Z,1020.53
2018-11-14T00:48:56.343Z,1020.56
2018-11-14T00:49:56.331Z,1020.56
2018-11-14T00:50:56.323Z,1020.50
2018-11-14T00:51:56.322Z,1020.52
2018-11-14T00:52:56.302Z,1020.53
2018-11-14T00:53:56.288Z,1020.56
2018-11-14T00:54:56.295Z,1020.60
2018-11-14T00:55:56.266Z,1020.65
2018-11-14T00:56:56.268Z,1020.63
2018-11-14T00:57:56.290Z,1020.66
2018-11-14T00:58:56.235Z,1020.66
2018-11-14T00:59:56.267Z,1020.69
2018-11-14T01:00:56.211Z,1020.72
2018-11-14T01:01:56.212Z,1020.75
2018-11-14T01:02:56.194Z,1020.78
2018-11-14T01:03:56.187Z,1020.77
2018-11-14T01:04:56.170Z,1020.76
2018-11-14T01:05:56.155Z,1020.76
2018-11-14T01:06:56.156Z,1020.77
2018-11-14T01:07:56.135Z,1020.73
2018-11-14T01:08:56.133Z,1020.76
2018-11-14T01:09:56.113Z,1020.78
2018-11-14T01:10:56.102Z,1020.80
2018-11-14T01:11:56.104Z,1020.81
2018-11-14T01:12:56.088Z,1020.85
2018-11-14T01:13:56.069Z,1020.82
2018-11-14T01:14:56.059Z,1020.85
2018-11-14T01:15:56.048Z,1020.84
2018-11-14T01:16:56.048Z,1020.84
2018-11-14T01:17:56.028Z,1020.87
2018-11-14T01:18:56.015Z,1020.86
2018-11-14T01:19:56.005Z,1020.83
2018-11-14T01:20:56.007Z,1020.81
2018-11-14T01:21:55.993Z,1020.81
2018-11-14T01:22:55.992Z,1020.84
2018-11-14T01:23:55.962Z,1020.84
2018-11-14T01:24:55.949Z,1020.89
2018-11-14T01:25:55.969Z,1020.88
2018-11-14T01:26:55.952Z,1020.89
2018-11-14T01:27:55.938Z,1020.81
2018-11-14T01:28:55.906Z,1020.83
2018-11-14T01:29:55.897Z,1020.82
2018-11-14T01:30:55.885Z,1020.78
2018-11-14T01:31:55.885Z,1020.81
2018-11-14T01:32:55.863Z,1020.80
2018-11-14T01:33:55.890Z,1020.81
2018-11-14T01:34:55.842Z,1020.81
2018-11-14T01:35:55.916Z,1020.81
2018-11-14T01:36:55.835Z,1020.84
2018-11-14T01:37:55.812Z,1020.80
2018-11-14T01:38:55.799Z,1020.84
2018-11-14T01:39:55.788Z,1020.83
2018-11-14T01:40:55.820Z,1020.82
2018-11-14T01:41:55.778Z,1020.84
2018-11-14T01:42:55.756Z,1020.86
2018-11-14T01:43:55.748Z,1020.81
2018-11-14T01:44:55.736Z,1020.81
2018-11-14T01:45:55.734Z,1020.82
2018-11-14T01:46:55.726Z,1020.84
2018-11-14T01:47:55.702Z,1020.85
2018-11-14T01:48:55.692Z,1020.87
2018-11-14T01:49:55.682Z,1020.92
2018-11-14T01:50:55.669Z,1020.88
2018-11-14T01:51:55.707Z,1020.89
2018-11-14T01:52:55.652Z,1020.90
2018-11-14T01:53:55.636Z,1020.89
2018-11-14T01:54:55.628Z,1020.91
2018-11-14T01:55:55.630Z,1020.88
2018-11-14T01:56:55.603Z,1020.88
2018-11-14T01:57:55.604Z,1020.87
2018-11-14T01:58:55.581Z,1020.87
2018-11-14T01:59:55.571Z,1020.83
2018-11-14T02:00:55.564Z,1020.84
2018-11-14T02:01:55.551Z,1020.84
2018-11-14T02:02:55.551Z,1020.81
2018-11-14T02:03:55.531Z,1020.82
2018-11-14T02:04:55.516Z,1020.78
2018-11-14T02:05:55.506Z,1020.81
2018-11-14T02:06:55.494Z,1020.81
2018-11-14T02:07:55.494Z,1020.84
2018-11-14T02:08:55.481Z,1020.82
2018-11-14T02:09:55.466Z,1020.84
2018-11-14T02:10:55.455Z,1020.84
2018-11-14T02:11:55.441Z,1020.77
2018-11-14T02:12:55.442Z,1020.81
2018-11-14T02:13:55.419Z,1020.80
2018-11-14T02:14:55.409Z,1020.80
2018-11-14T02:15:55.401Z,1020.81
2018-11-14T02:16:55.386Z,1020.77
2018-11-14T02:17:55.388Z,1020.77
2018-11-14T02:18:55.385Z,1020.77
2018-11-14T02:19:55.355Z,1020.76
2018-11-14T02:20:55.343Z,1020.74
2018-11-14T02:21:55.331Z,1020.68
2018-11-14T02:22:55.332Z,1020.68
2018-11-14T02:23:55.310Z,1020.70
2018-11-14T02:24:55.298Z,1020.74
2018-11-14T02:25:55.300Z,1020.71
2018-11-14T02:26:55.276Z,1020.74
2018-11-14T02:27:55.276Z,1020.74
2018-11-14T02:28:55.257Z,1020.75
2018-11-14T02:29:55.244Z,1020.71
2018-11-14T02:30:55.235Z,1020.73
2018-11-14T02:31:55.227Z,1020.74
2018-11-14T02:32:55.235Z,1020.73
2018-11-14T02:33:55.202Z,1020.74
2018-11-14T02:34:55.192Z,1020.76
2018-11-14T02:35:55.181Z,1020.75
2018-11-14T02:36:55.174Z,1020.72
2018-11-14T02:37:55.160Z,1020.72
2018-11-14T02:38:55.163Z,1020.75
2018-11-14T02:39:55.137Z,1020.74
2018-11-14T02:40:55.126Z,1020.72
2018-11-14T02:41:55.126Z,1020.71
2018-11-14T02:42:55.105Z,1020.68
2018-11-14T02:43:55.106Z,1020.68
2018-11-14T02:44:55.082Z,1020.73
2018-11-14T02:45:55.071Z,1020.75
2018-11-14T02:46:55.060Z,1020.72
2018-11-14T02:47:55.053Z,1020.72
2018-11-14T02:48:55.051Z,1020.70
2018-11-14T02:49:55.033Z,1020.71
2018-11-14T02:50:55.018Z,1020.67
2018-11-14T02:51:55.007Z,1020.68
2018-11-14T02:52:55.048Z,1020.69
2018-11-14T02:53:54.994Z,1020.65
2018-11-14T02:54:54.974Z,1020.63
2018-11-14T02:55:54.969Z,1020.61
2018-11-14T02:56:54.960Z,1020.60
2018-11-14T02:57:54.939Z,1020.60
2018-11-14T02:58:54.942Z,1020.62
2018-11-14T02:59:54.918Z,1020.60
2018-11-14T03:00:54.911Z,1020.64
2018-11-14T03:01:54.898Z,1020.60
2018-11-14T03:02:54.889Z,1020.63
2018-11-14T03:03:54.885Z,1020.65
2018-11-14T03:04:54.882Z,1020.65
2018-11-14T03:05:54.854Z,1020.66
2018-11-14T03:06:54.844Z,1020.68
2018-11-14T03:07:54.836Z,1020.66
2018-11-14T03:08:54.833Z,1020.64
2018-11-14T03:09:54.810Z,1020.66
2018-11-14T03:10:54.801Z,1020.59
2018-11-14T03:11:54.797Z,1020.57
2018-11-14T03:12:54.777Z,1020.53
2018-11-14T03:13:54.781Z,1020.50
2018-11-14T03:14:54.769Z,1020.51
2018-11-14T03:15:54.748Z,1020.49
2018-11-14T03:16:54.734Z,1020.48
2018-11-14T03:17:54.722Z,1020.50
2018-11-14T03:18:54.724Z,1020.54
2018-11-14T03:19:54.702Z,1020.55
2018-11-14T03:20:54.694Z,1020.54
2018-11-14T03:21:54.680Z,1020.52
2018-11-14T03:22:54.670Z,1020.49
2018-11-14T03:23:54.674Z,1020.47
2018-11-14T03:24:54.651Z,1020.50
2018-11-14T03:25:54.636Z,1020.48
2018-11-14T03:26:54.623Z,1020.51
2018-11-14T03:27:54.619Z,1020.52
2018-11-14T03:28:54.619Z,1020.54
2018-11-14T03:29:54.601Z,1020.56
2018-11-14T03:30:54.586Z,1020.51
2018-11-14T03:31:54.570Z,1020.57
2018-11-14T03:32:54.567Z,1020.58
2018-11-14T03:33:54.562Z,1020.58
2018-11-14T03:34:54.537Z,1020.56
2018-11-14T03:35:54.528Z,1020.55
2018-11-14T03:36:54.514Z,1020.51
2018-11-14T03:37:54.522Z,1020.52
2018-11-14T03:38:54.502Z,1020.45
2018-11-14T03:39:54.481Z,1020.49
2018-11-14T03:40:54.473Z,1020.49
2018-11-14T03:41:54.462Z,1020.47
2018-11-14T03:42:54.448Z,1020.50
2018-11-14T03:43:54.452Z,1020.44
2018-11-14T03:44:54.428Z,1020.46
2018-11-14T03:45:54.418Z,1020.45
2018-11-14T03:46:54.406Z,1020.43
2018-11-14T03:47:54.395Z,1020.39
2018-11-14T03:48:54.401Z,1020.38
2018-11-14T03:49:54.374Z,1020.40
2018-11-14T03:50:54.366Z,1020.39
2018-11-14T03:51:54.351Z,1020.37
2018-11-14T03:52:54.342Z,1020.39
2018-11-14T03:53:54.346Z,1020.40
2018-11-14T03:54:54.320Z,1020.36
2018-11-14T03:55:54.318Z,1020.40
2018-11-14T03:56:54.306Z,1020.36
2018-11-14T03:57:54.288Z,1020.35
2018-11-14T03:58:54.305Z,1020.37
2018-11-14T03:59:54.264Z,1020.36
2018-11-14T04:00:54.275Z,1020.32
2018-11-14T04:01:54.252Z,1020.39
2018-11-14T04:02:54.232Z,1020.36
2018-11-14T04:03:54.223Z,1020.33
2018-11-14T04:04:54.221Z,1020.34
2018-11-14T04:05:54.201Z,1020.35
2018-11-14T04:06:54.190Z,1020.34
2018-11-14T04:07:54.177Z,1020.34
2018-11-14T04:08:54.169Z,1020.37
2018-11-14T04:09:54.170Z,1020.32
2018-11-14T04:10:54.170Z,1020.37
2018-11-14T04:11:54.134Z,1020.34
2018-11-14T04:12:54.126Z,1020.40
2018-11-14T04:13:54.113Z,1020.37
2018-11-14T04:14:54.113Z,1020.41
2018-11-14T04:15:54.091Z,1020.37
2018-11-14T04:16:54.080Z,1020.41
2018-11-14T04:17:54.069Z,1020.37
2018-11-14T04:18:54.059Z,1020.38
2018-11-14T04:19:54.058Z,1020.39
2018-11-14T04:20:54.036Z,1020.39
2018-11-14T04:21:54.028Z,1020.39
2018-11-14T04:22:54.015Z,1020.38
2018-11-14T04:23:54.025Z,1020.40
2018-11-14T04:24:54.006Z,1020.42
2018-11-14T04:25:53.997Z,1020.38
2018-11-14T04:26:53.970Z,1020.42
2018-11-14T04:27:53.958Z,1020.40
2018-11-14T04:28:53.951Z,1020.46
2018-11-14T04:29:53.952Z,1020.45
2018-11-14T04:30:53.931Z,1020.46
2018-11-14T04:31:53.915Z,1020.46
2018-11-14T04:32:53.904Z,1020.45
2018-11-14T04:33:53.915Z,1020.43
2018-11-14T04:34:53.894Z,1020.44
2018-11-14T04:35:53.880Z,1020.40
2018-11-14T04:36:53.861Z,1020.38
2018-11-14T04:37:53.851Z,1020.39
2018-11-14T04:38:53.838Z,1020.36
2018-11-14T04:39:53.839Z,1020.31
2018-11-14T04:40:53.817Z,1020.27
2018-11-14T04:41:53.807Z,1020.27
2018-11-14T04:42:53.796Z,1020.25
2018-11-14T04:43:53.787Z,1020.21
2018-11-14T04:44:53.821Z,1020.19
2018-11-14T04:45:53.760Z,1020.19
2018-11-14T04:46:53.765Z,1020.21
2018-11-14T04:47:53.811Z,1020.16
2018-11-14T04:48:53.730Z,1020.17
2018-11-14T04:49:53.729Z,1020.21
2018-11-14T04:50:53.706Z,1020.24
2018-11-14T04:51:53.695Z,1020.21
2018-11-14T04:52:53.686Z,1020.17
2018-11-14T04:53:53.674Z,1020.23
2018-11-14T04:54:53.690Z,1020.19
2018-11-14T04:55:53.649Z,1020.19
2018-11-14T04:56:53.661Z,1020.25
2018-11-14T04:57:53.634Z,1020.21
2018-11-14T04:58:53.648Z,1020.20
2018-11-14T04:59:53.623Z,1020.23
2018-11-14T05:00:53.616Z,1020.20
2018-11-14T05:01:53.603Z,1020.21
2018-11-14T05:02:53.672Z,1020.22
2018-11-14T05:03:53.578Z,1020.22
2018-11-14T05:04:53.555Z,1020.22
2018-11-14T05:05:53.551Z,1020.21
2018-11-14T05:06:53.529Z,1020.26
2018-11-14T05:07:53.519Z,1020.29
2018-11-14T05:08:53.508Z,1020.28
2018-11-14T05:09:53.511Z,1020.24
2018-11-14T05:10:53.496Z,1020.28
2018-11-14T05:11:53.475Z,1020.27
2018-11-14T05:12:53.610Z,1020.31
2018-11-14T05:13:53.453Z,1020.29
2018-11-14T05:14:53.442Z,1020.30
2018-11-14T05:15:53.443Z,1020.27
2018-11-14T05:16:53.421Z,1020.27
2018-11-14T05:17:53.414Z,1020.25
2018-11-14T05:18:53.402Z,1020.20
2018-11-14T05:19:53.399Z,1020.23
2018-11-14T05:20:53.392Z,1020.17
2018-11-14T05:21:53.383Z,1020.22
2018-11-14T05:22:53.357Z,1020.15
2018-11-14T05:23:53.341Z,1020.17
2018-11-14T05:24:53.336Z,1020.18
2018-11-14T05:25:53.330Z,1020.16
2018-11-14T05:26:53.329Z,1020.16
2018-11-14T05:27:53.297Z,1020.17
2018-11-14T05:28:53.287Z,1020.14
2018-11-14T05:29:53.277Z,1020.14
2018-11-14T05:30:53.277Z,1020.16
2018-11-14T05:31:53.321Z,1020.13
2018-11-14T05:32:53.251Z,1020.10
2018-11-14T05:33:53.233Z,1020.12
2018-11-14T05:34:53.223Z,1020.15
2018-11-14T05:35:53.221Z,1020.15
2018-11-14T05:36:53.198Z,1020.17
2018-11-14T05:37:53.189Z,1020.17
2018-11-14T05:38:53.178Z,1020.17
2018-11-14T05:39:53.379Z,1020.15
2018-11-14T05:40:53.206Z,1020.15
2018-11-14T05:41:53.145Z,1020.15
2018-11-14T05:42:53.154Z,1020.10
2018-11-14T05:43:53.122Z,1020.15
2018-11-14T05:44:53.113Z,1020.11
2018-11-14T05:45:53.115Z,1020.11
2018-11-14T05:46:53.090Z,1020.09
2018-11-14T05:47:53.080Z,1020.08
2018-11-14T05:48:53.071Z,1020.09
2018-11-14T05:49:53.058Z,1020.09
2018-11-14T05:50:53.077Z,1020.10
2018-11-14T05:51:53.047Z,1020.08
2018-11-14T05:52:53.024Z,1020.03
2018-11-14T05:53:53.014Z,1020.03
2018-11-14T05:54:53.104Z,1019.99
2018-11-14T05:55:52.995Z,1020.02
2018-11-14T05:56:52.993Z,1019.98
2018-11-14T05:57:52.969Z,1020.01
2018-11-14T05:58:52.960Z,1020.00
2018-11-14T05:59:52.948Z,1020.04
2018-11-14T06:00:52.937Z,1020.03
2018-11-14T06:01:52.938Z,1020.03
2018-11-14T06:02:52.914Z,1020.06
2018-11-14T06:03:52.903Z,1020.08
2018-11-14T06:04:52.900Z,1020.07
2018-11-14T06:05:52.906Z,1020.06
2018-11-14T06:06:52.881Z,1020.05
2018-11-14T06:07:52.860Z,1020.04
2018-11-14T06:08:52.847Z,1020.05
2018-11-14T06:09:52.837Z,1020.01
2018-11-14T06:10:52.832Z,1020.04
2018-11-14T06:11:52.825Z,1020.05
2018-11-14T06:12:52.801Z,1020.06
2018-11-14T06:13:52.793Z,1020.03
2018-11-14T06:14:52.782Z,1020.08
2018-11-14T06:15:52.771Z,1020.10
2018-11-14T06:16:52.771Z,1020.08
2018-11-14T06:17:52.748Z,1020.12
2018-11-14T06:18:52.738Z,1020.18
2018-11-14T06:19:52.726Z,1020.14
2018-11-14T06:20:52.716Z,1020.17
2018-11-14T06:21:52.768Z,1020.16
2018-11-14T06:22:52.710Z,1020.20
2018-11-14T06:23:52.680Z,1020.13
2018-11-14T06:24:52.674Z,1020.14
2018-11-14T06:25:52.661Z,1020.16
2018-11-14T06:26:52.664Z,1020.16
2018-11-14T06:27:52.750Z,1020.18
2018-11-14T06:28:52.647Z,1020.18
2018-11-14T06:29:52.712Z,1020.17
2018-11-14T06:30:52.613Z,1020.13
2018-11-14T06:31:52.607Z,1020.12
2018-11-14T06:32:52.584Z,1020.18
2018-11-14T06:33:52.574Z,1020.20
2018-11-14T06:34:52.620Z,1020.24
2018-11-14T06:35:52.578Z,1020.24
2018-11-14T06:36:52.555Z,1020.24
2018-11-14T06:37:52.550Z,1020.23
2018-11-14T06:38:52.595Z,1020.23
2018-11-14T06:39:52.511Z,1020.24
2018-11-14T06:40:52.498Z,1020.24
2018-11-14T06:41:52.545Z,1020.23
2018-11-14T06:42:53.056Z,1020.22
2018-11-14T06:43:52.464Z,1020.22
2018-11-14T06:44:52.449Z,1020.18
2018-11-14T06:45:52.451Z,1020.17
2018-11-14T06:46:52.454Z,1020.19
2018-11-14T06:47:52.422Z,1020.17
2018-11-14T06:48:52.408Z,1020.19
2018-11-14T06:49:52.441Z,1020.27
2018-11-14T06:50:52.385Z,1020.27
2018-11-14T06:51:52.392Z,1020.28
2018-11-14T06:52:59.414Z,1020.30
2018-11-14T06:53:59.875Z,1020.33
2018-11-14T06:54:59.864Z,1020.32
2018-11-14T06:55:52.332Z,1020.28
2018-11-14T06:56:52.320Z,1020.27
2018-11-14T06:57:52.319Z,1020.29
2018-11-14T06:58:52.361Z,1020.32
2018-11-14T06:59:52.357Z,1020.27
2018-11-14T07:00:52.280Z,1020.28
2018-11-14T07:01:52.264Z,1020.31
2018-11-14T07:02:52.269Z,1020.36
2018-11-14T07:03:52.245Z,1020.30
2018-11-14T07:04:52.233Z,1020.29
2018-11-14T07:05:52.409Z,1020.37
2018-11-14T07:06:52.222Z,1020.42
2018-11-14T07:07:52.221Z,1020.43
2018-11-14T07:08:52.196Z,1020.44
2018-11-14T07:09:52.190Z,1020.45
2018-11-14T07:10:52.242Z,1020.49
2018-11-14T07:11:52.269Z,1020.48
2018-11-14T07:12:52.155Z,1020.50
2018-11-14T07:13:52.129Z,1020.56
2018-11-14T07:14:52.136Z,1020.53
2018-11-14T07:15:52.105Z,1020.59
2018-11-14T07:16:52.094Z,1020.62
2018-11-14T07:17:52.137Z,1020.62
2018-11-14T07:18:52.072Z,1020.65
2018-11-14T07:19:52.064Z,1020.67
2018-11-14T07:20:52.053Z,1020.71
2018-11-14T07:21:52.039Z,1020.69
2018-11-14T07:22:52.047Z,1020.75
2018-11-14T07:23:52.143Z,1020.70
2018-11-14T07:24:52.005Z,1020.77
2018-11-14T07:25:51.995Z,1020.74
2018-11-14T07:26:51.983Z,1020.71
2018-11-14T07:27:52.002Z,1020.73
2018-11-14T07:28:51.961Z,1020.72
2018-11-14T07:29:51.959Z,1020.73
2018-11-14T07:30:51.997Z,1020.70
2018-11-14T07:31:51.964Z,1020.64
2018-11-14T07:32:51.930Z,1020.68
2018-11-14T07:33:51.906Z,1020.70
2018-11-14T07:34:51.895Z,1020.65
2018-11-14T07:35:51.887Z,1020.72
2018-11-14T07:36:51.874Z,1020.70
2018-11-14T07:37:51.956Z,1020.74
2018-11-14T07:38:51.854Z,1020.74
2018-11-14T07:39:51.839Z,1020.76
2018-11-14T07:40:51.829Z,1020.78
2018-11-14T07:41:51.821Z,1020.76
2018-11-14T07:42:51.819Z,1020.77
2018-11-14T07:43:51.810Z,1020.79
2018-11-14T07:44:51.785Z,1020.78
2018-11-14T07:45:51.773Z,1020.80
2018-11-14T07:46:51.761Z,1020.84
2018-11-14T07:47:51.782Z,1020.88
2018-11-14T07:48:51.827Z,1020.87
2018-11-14T07:49:51.741Z,1020.93
2018-11-14T07:50:51.718Z,1020.87
2018-11-14T07:51:51.707Z,1020.89
2018-11-14T07:52:51.695Z,1020.86
2018-11-14T07:53:51.706Z,1020.86
2018-11-14T07:54:51.680Z,1020.85
2018-11-14T07:55:51.666Z,1020.88
2018-11-14T07:56:51.660Z,1020.86
2018-11-14T07:57:51.641Z,1020.88
2018-11-14T07:58:51.649Z,1020.92
2018-11-14T07:59:51.619Z,1020.90
2018-11-14T08:00:51.632Z,1020.92
2018-11-14T08:01:51.597Z,1020.90
2018-11-14T08:02:51.585Z,1020.91
2018-11-14T08:03:51.587Z,1020.87
2018-11-14T08:04:51.562Z,1020.91
2018-11-14T08:05:51.559Z,1020.91
2018-11-14T08:06:51.552Z,1020.90
2018-11-14T08:07:51.615Z,1020.93
2018-11-14T08:08:51.532Z,1020.94
2018-11-14T08:09:51.506Z,1020.96
2018-11-14T08:10:51.517Z,1020.93
2018-11-14T08:11:51.484Z,1020.94
2018-11-14T08:12:51.475Z,1020.97
2018-11-14T08:13:51.485Z,1020.94
2018-11-14T08:14:51.452Z,1020.92
2018-11-14T08:15:51.440Z,1020.97
2018-11-14T08:16:51.429Z,1020.99
2018-11-14T08:17:51.420Z,1021.00
2018-11-14T08:18:51.472Z,1021.03
2018-11-14T08:19:51.428Z,1021.04
2018-11-14T08:20:51.386Z,1021.02
2018-11-14T08:21:51.374Z,1021.00
2018-11-14T08:22:51.366Z,1021.00
2018-11-14T08:23:51.367Z,1020.98
2018-11-14T08:24:51.356Z,1020.93
2018-11-14T08:25:51.339Z,1020.95
2018-11-14T08:26:51.327Z,1020.91
2018-11-14T08:27:51.308Z,1020.91
2018-11-14T08:28:51.316Z,1020.90
2018-11-14T08:29:51.286Z,1020.87
2018-11-14T08:30:51.281Z,1020.86
2018-11-14T08:31:51.313Z,1020.81
2018-11-14T08:32:51.257Z,1020.82
2018-11-14T08:33:51.274Z,1020.79
2018-11-14T08:34:51.232Z,1020.80
2018-11-14T08:35:51.227Z,1020.77
2018-11-14T08:36:51.211Z,1020.83
2018-11-14T08:37:51.204Z,1020.82
2018-11-14T08:38:51.218Z,1020.80
2018-11-14T08:39:51.179Z,1020.79
2018-11-14T08:40:51.168Z,1020.80
2018-11-14T08:41:51.156Z,1020.83
2018-11-14T08:42:51.146Z,1020.82
2018-11-14T08:43:51.140Z,1020.87
2018-11-14T08:44:51.160Z,1020.82
2018-11-14T08:45:51.113Z,1020.86
2018-11-14T08:46:51.119Z,1020.83
2018-11-14T08:47:51.110Z,1020.80
2018-11-14T08:48:51.080Z,1020.78
2018-11-14T08:49:51.080Z,1020.79
2018-11-14T08:50:51.058Z,1020.81
2018-11-14T08:51:51.048Z,1020.79
2018-11-14T08:52:51.040Z,1020.82
2018-11-14T08:53:51.024Z,1020.82
2018-11-14T08:54:51.027Z,1020.80
2018-11-14T08:55:51.002Z,1020.86
2018-11-14T08:56:51.015Z,1020.82
2018-11-14T08:57:51.011Z,1020.87
2018-11-14T08:58:50.972Z,1020.87
2018-11-14T08:59:50.991Z,1020.93
2018-11-14T09:00:51.046Z,1020.94
2018-11-14T09:01:50.946Z,1020.94
2018-11-14T09:02:50.927Z,1020.93
2018-11-14T09:03:50.935Z,1020.95
2018-11-14T09:04:50.917Z,1020.95
2018-11-14T09:05:50.902Z,1020.91
2018-11-14T09:06:50.887Z,1020.94
2018-11-14T09:07:51.005Z,1020.95
2018-11-14T09:08:50.862Z,1020.90
2018-11-14T09:09:50.884Z,1020.95
2018-11-14T09:10:50.844Z,1020.93
2018-11-14T09:11:50.839Z,1020.95
2018-11-14T09:12:50.893Z,1020.97
2018-11-14T09:13:50.813Z,1020.97
2018-11-14T09:14:50.883Z,1020.92
2018-11-14T09:15:50.785Z,1020.93
2018-11-14T09:16:50.777Z,1020.92
2018-11-14T09:17:50.780Z,1020.92
2018-11-14T09:18:50.812Z,1020.90
2018-11-14T09:19:50.773Z,1020.93
2018-11-14T09:20:50.743Z,1020.93
2018-11-14T09:21:50.723Z,1020.92
2018-11-14T09:22:50.713Z,1020.93
2018-11-14T09:23:50.802Z,1020.93
2018-11-14T09:24:50.712Z,1020.93
2018-11-14T09:25:50.676Z,1020.97
2018-11-14T09:26:50.670Z,1020.95
2018-11-14T09:27:50.654Z,1020.95
2018-11-14T09:28:50.646Z,1020.99
2018-11-14T09:29:50.649Z,1020.94
2018-11-14T09:30:50.631Z,1020.98
2018-11-14T09:31:50.613Z,1020.95
2018-11-14T09:32:50.650Z,1020.97
2018-11-14T09:33:50.639Z,1020.94
2018-11-14T09:34:50.590Z,1020.90
2018-11-14T09:35:50.570Z,1020.89
2018-11-14T09:36:50.578Z,1020.88
2018-11-14T09:37:50.544Z,1020.89
2018-11-14T09:38:50.534Z,1020.87
2018-11-14T09:39:50.544Z,1020.92
2018-11-14T09:40:50.545Z,1020.93
2018-11-14T09:41:50.501Z,1020.88
2018-11-14T09:42:50.512Z,1020.92
2018-11-14T09:43:50.537Z,1020.91
2018-11-14T09:44:50.468Z,1020.95
2018-11-14T09:45:50.473Z,1020.96
2018-11-14T09:46:50.447Z,1020.95
2018-11-14T09:47:50.461Z,1020.94
2018-11-14T09:48:50.457Z,1020.92
2018-11-14T09:49:50.413Z,1020.93
2018-11-14T09:50:50.422Z,1020.92
2018-11-14T09:51:50.391Z,1020.91
2018-11-14T09:52:50.402Z,1020.93
2018-11-14T09:53:50.375Z,1020.90
2018-11-14T09:54:50.391Z,1020.93
2018-11-14T09:55:50.371Z,1020.93
2018-11-14T09:56:50.358Z,1020.94
2018-11-14T09:57:50.324Z,1020.95
2018-11-14T09:58:50.403Z,1020.96
2018-11-14T09:59:50.302Z,1020.96
2018-11-14T10:00:50.316Z,1020.94
2018-11-14T10:01:50.287Z,1020.91
2018-11-14T10:02:50.353Z,1020.91
2018-11-14T10:03:50.258Z,1020.91
2018-11-14T10:04:50.247Z,1020.88
2018-11-14T10:05:50.306Z,1020.88
2018-11-14T10:06:50.225Z,1020.87
2018-11-14T10:07:50.236Z,1020.90
2018-11-14T10:08:50.227Z,1020.92
2018-11-14T10:09:50.195Z,1020.96
2018-11-14T10:10:50.231Z,1020.97
2018-11-14T10:11:50.173Z,1020.94
2018-11-14T10:12:50.161Z,1020.99
2018-11-14T10:13:50.149Z,1020.97
2018-11-14T10:14:50.136Z,1020.95
2018-11-14T10:15:50.172Z,1020.92
2018-11-14T10:16:50.122Z,1020.89
2018-11-14T10:17:50.103Z,1020.90
2018-11-14T10:18:50.094Z,1020.91
2018-11-14T10:19:50.086Z,1020.84
2018-11-14T10:20:50.081Z,1020.79
2018-11-14T10:21:50.064Z,1020.79
2018-11-14T10:22:50.046Z,1020.85
2018-11-14T10:23:50.041Z,1020.82
2018-11-14T10:24:50.062Z,1020.81
2018-11-14T10:25:50.083Z,1020.81
2018-11-14T10:26:50.004Z,1020.80
2018-11-14T10:27:49.993Z,1020.83
2018-11-14T10:28:49.996Z,1020.81
2018-11-14T10:29:49.971Z,1020.83
2018-11-14T10:30:50.023Z,1020.85
2018-11-14T10:31:49.990Z,1020.86
2018-11-14T10:32:49.938Z,1020.84
2018-11-14T10:33:49.927Z,1020.86
2018-11-14T10:34:49.925Z,1020.83
2018-11-14T10:35:49.925Z,1020.85
2018-11-14T10:36:49.894Z,1020.84
2018-11-14T10:37:49.890Z,1020.84
2018-11-14T10:38:49.872Z,1020.88
2018-11-14T10:39:49.861Z,1020.86
2018-11-14T10:40:49.849Z,1020.86
2018-11-14T10:41:49.855Z,1020.92
2018-11-14T10:42:49.882Z,1020.92
2018-11-14T10:43:49.825Z,1020.87
2018-11-14T10:44:49.809Z,1020.88
2018-11-14T10:45:49.797Z,1020.85
2018-11-14T10:46:49.796Z,1020.84
2018-11-14T10:47:49.774Z,1020.83
2018-11-14T10:48:57.295Z,1020.86
2018-11-14T10:49:49.750Z,1020.86
2018-11-14T10:50:57.310Z,1020.83
2018-11-14T10:51:49.763Z,1020.80
2018-11-14T10:52:49.717Z,1020.79
2018-11-14T10:53:49.708Z,1020.76
2018-11-14T10:54:49.693Z,1020.82
2018-11-14T10:55:49.682Z,1020.85
2018-11-14T10:56:49.682Z,1020.81
2018-11-14T10:57:49.666Z,1020.82
2018-11-14T10:58:49.653Z,1020.83
2018-11-14T10:59:49.645Z,1020.81
2018-11-14T11:00:49.646Z,1020.81
2018-11-14T11:01:49.647Z,1020.85
2018-11-14T11:02:49.606Z,1020.81
2018-11-14T11:03:49.597Z,1020.76
2018-11-14T11:04:49.586Z,1020.76
2018-11-14T11:05:49.582Z,1020.73
2018-11-14T11:06:49.609Z,1020.69
2018-11-14T11:07:49.584Z,1020.68
2018-11-14T11:08:49.548Z,1020.63
2018-11-14T11:09:49.533Z,1020.59
2018-11-14T11:10:50.399Z,1020.58
2018-11-14T11:11:49.510Z,1020.57
2018-11-14T11:12:49.508Z,1020.60
2018-11-14T11:13:49.513Z,1020.59
2018-11-14T11:14:49.493Z,1020.58
2018-11-14T11:15:49.466Z,1020.59
2018-11-14T11:16:49.482Z,1020.53
2018-11-14T11:17:49.466Z,1020.54
2018-11-14T11:18:49.433Z,1020.55
2018-11-14T11:19:49.422Z,1020.53
2018-11-14T11:20:49.412Z,1020.49
2018-11-14T11:21:49.399Z,1020.50
2018-11-14T11:22:49.402Z,1020.52
2018-11-14T11:23:49.383Z,1020.55
2018-11-14T11:24:49.385Z,1020.52
2018-11-14T11:25:49.356Z,1020.55
2018-11-14T11:26:49.344Z,1020.52
2018-11-14T11:27:49.346Z,1020.52
2018-11-14T11:28:49.324Z,1020.53
2018-11-14T11:29:49.311Z,1020.50
2018-11-14T11:30:49.391Z,1020.48
2018-11-14T11:31:49.297Z,1020.50
2018-11-14T11:32:49.294Z,1020.46
2018-11-14T11:33:49.269Z,1020.43
2018-11-14T11:34:49.260Z,1020.46
2018-11-14T11:35:49.247Z,1020.40
2018-11-14T11:36:49.253Z,1020.35
2018-11-14T11:37:49.257Z,1020.36
2018-11-14T11:38:49.222Z,1020.34
2018-11-14T11:39:49.204Z,1020.35
2018-11-14T11:40:49.193Z,1020.34
2018-11-14T11:41:49.185Z,1020.36
2018-11-14T11:42:49.185Z,1020.36
2018-11-14T11:43:49.161Z,1020.40
2018-11-14T11:44:49.151Z,1020.38
2018-11-14T11:45:49.143Z,1020.36
2018-11-14T11:46:49.126Z,1020.38
2018-11-14T11:47:49.157Z,1020.38
2018-11-14T11:48:49.108Z,1020.31
2018-11-14T11:49:49.147Z,1020.34
2018-11-14T11:50:49.114Z,1020.28
2018-11-14T11:51:49.072Z,1020.26
2018-11-14T11:52:49.073Z,1020.22
2018-11-14T11:53:49.051Z,1020.23
2018-11-14T11:54:49.041Z,1020.20
2018-11-14T11:55:49.044Z,1020.19
2018-11-14T11:56:49.030Z,1020.16
2018-11-14T11:57:49.054Z,1020.13
2018-11-14T11:58:49.005Z,1020.08
2018-11-14T11:59:49.081Z,1020.12
2018-11-14T12:00:49.073Z,1020.11
2018-11-14T12:01:48.978Z,1020.09
2018-11-14T12:02:49.012Z,1020.05
2018-11-14T12:03:48.950Z,1020.06
2018-11-14T12:04:48.934Z,1020.09
2018-11-14T12:05:48.960Z,1020.08